sensor_id;sensor_type;location;lat;lon;timestamp;P1;durP1;ratioP1;P2;durP2;ratioP2
26335;SDS011;14047;50.936;4.654;2023-08-08T00:02:01;7.35;;;2.70;;
26335;SDS011;14047;50.936;4.654;2023-08-08T00:04:28;4.63;;;2.20;;
26335;SDS011;14047;50.936;4.654;2023-08-08T00:06:53;9.27;;;2.20;;
26335;SDS011;14047;50.936;4.654;2023-08-08T00:09:19;11.52;;;2.90;;
26335;SDS011;14047;50.936;4.654;2023-08-08T00:11:45;13.75;;;2.75;;
26335;SDS011;14047;50.936;4.654;2023-08-08T00:14:11;12.25;;;2.78;;
26335;SDS011;14047;50.936;4.654;2023-08-08T00:16:37;6.25;;;2.42;;
26335;SDS011;14047;50.936;4.654;2023-08-08T00:19:03;7.22;;;2.20;;
26335;SDS011;14047;50.936;4.654;2023-08-08T00:21:29;5.80;;;2.33;;
26335;SDS011;14047;50.936;4.654;2023-08-08T00:23:55;12.38;;;3.20;;
26335;SDS011;14047;50.936;4.654;2023-08-08T00:26:21;9.50;;;2.60;;
26335;SDS011;14047;50.936;4.654;2023-08-08T00:28:47;11.48;;;2.60;;
26335;SDS011;14047;50.936;4.654;2023-08-08T00:31:13;6.85;;;2.63;;
26335;SDS011;14047;50.936;4.654;2023-08-08T00:33:42;9.23;;;2.65;;
26335;SDS011;14047;50.936;4.654;2023-08-08T00:36:08;11.00;;;2.47;;
26335;SDS011;14047;50.936;4.654;2023-08-08T00:38:34;8.82;;;2.58;;
26335;SDS011;14047;50.936;4.654;2023-08-08T00:41:00;8.05;;;2.65;;
26335;SDS011;14047;50.936;4.654;2023-08-08T00:43:26;7.90;;;2.80;;
26335;SDS011;14047;50.936;4.654;2023-08-08T00:45:52;10.45;;;3.05;;
26335;SDS011;14047;50.936;4.654;2023-08-08T00:48:18;12.60;;;3.08;;
26335;SDS011;14047;50.936;4.654;2023-08-08T00:50:44;12.23;;;2.70;;
26335;SDS011;14047;50.936;4.654;2023-08-08T00:53:13;8.50;;;2.80;;
26335;SDS011;14047;50.936;4.654;2023-08-08T00:55:41;11.32;;;2.83;;
26335;SDS011;14047;50.936;4.654;2023-08-08T00:58:07;11.80;;;2.92;;
26335;SDS011;14047;50.936;4.654;2023-08-08T01:00:33;9.38;;;3.10;;
26335;SDS011;14047;50.936;4.654;2023-08-08T01:02:59;8.68;;;3.35;;
26335;SDS011;14047;50.936;4.654;2023-08-08T01:05:25;13.23;;;3.05;;
26335;SDS011;14047;50.936;4.654;2023-08-08T01:07:59;11.82;;;3.30;;
26335;SDS011;14047;50.936;4.654;2023-08-08T01:10:33;14.27;;;3.50;;
26335;SDS011;14047;50.936;4.654;2023-08-08T01:13:04;12.38;;;3.30;;
26335;SDS011;14047;50.936;4.654;2023-08-08T01:15:35;14.45;;;2.97;;
26335;SDS011;14047;50.936;4.654;2023-08-08T01:18:05;11.57;;;3.03;;
26335;SDS011;14047;50.936;4.654;2023-08-08T01:20:33;10.45;;;3.13;;
26335;SDS011;14047;50.936;4.654;2023-08-08T01:25:46;13.05;;;3.25;;
26335;SDS011;14047;50.936;4.654;2023-08-08T01:28:14;12.18;;;3.80;;
26335;SDS011;14047;50.936;4.654;2023-08-08T01:30:40;14.88;;;3.75;;
26335;SDS011;14047;50.936;4.654;2023-08-08T01:33:07;16.23;;;4.05;;
26335;SDS011;14047;50.936;4.654;2023-08-08T01:35:35;11.25;;;3.30;;
26335;SDS011;14047;50.936;4.654;2023-08-08T01:38:09;14.82;;;3.65;;
26335;SDS011;14047;50.936;4.654;2023-08-08T01:40:40;14.15;;;3.15;;
26335;SDS011;14047;50.936;4.654;2023-08-08T01:43:09;11.93;;;4.72;;
26335;SDS011;14047;50.936;4.654;2023-08-08T01:45:36;10.80;;;3.58;;
26335;SDS011;14047;50.936;4.654;2023-08-08T01:48:10;13.80;;;3.28;;
26335;SDS011;14047;50.936;4.654;2023-08-08T01:50:37;14.65;;;3.40;;
26335;SDS011;14047;50.936;4.654;2023-08-08T01:53:04;13.65;;;4.28;;
26335;SDS011;14047;50.936;4.654;2023-08-08T01:55:30;15.63;;;3.72;;
26335;SDS011;14047;50.936;4.654;2023-08-08T01:57:56;14.90;;;4.18;;
26335;SDS011;14047;50.936;4.654;2023-08-08T02:00:22;12.35;;;4.10;;
26335;SDS011;14047;50.936;4.654;2023-08-08T02:02:49;17.45;;;4.82;;
26335;SDS011;14047;50.936;4.654;2023-08-08T02:05:15;14.45;;;3.42;;
26335;SDS011;14047;50.936;4.654;2023-08-08T02:07:41;12.68;;;3.65;;
26335;SDS011;14047;50.936;4.654;2023-08-08T02:10:06;18.85;;;4.35;;
26335;SDS011;14047;50.936;4.654;2023-08-08T02:12:33;11.23;;;2.85;;
26335;SDS011;14047;50.936;4.654;2023-08-08T02:14:59;12.05;;;3.40;;
26335;SDS011;14047;50.936;4.654;2023-08-08T02:17:25;16.13;;;4.40;;
26335;SDS011;14047;50.936;4.654;2023-08-08T02:19:51;11.75;;;4.20;;
26335;SDS011;14047;50.936;4.654;2023-08-08T02:22:18;15.50;;;4.05;;
26335;SDS011;14047;50.936;4.654;2023-08-08T02:24:44;17.15;;;4.10;;
26335;SDS011;14047;50.936;4.654;2023-08-08T02:27:11;13.68;;;4.40;;
26335;SDS011;14047;50.936;4.654;2023-08-08T02:29:37;17.02;;;4.05;;
26335;SDS011;14047;50.936;4.654;2023-08-08T02:32:03;16.67;;;4.05;;
26335;SDS011;14047;50.936;4.654;2023-08-08T02:34:29;14.43;;;4.40;;
26335;SDS011;14047;50.936;4.654;2023-08-08T02:36:55;18.17;;;4.00;;
26335;SDS011;14047;50.936;4.654;2023-08-08T02:39:21;12.18;;;4.00;;
26335;SDS011;14047;50.936;4.654;2023-08-08T02:41:47;20.88;;;4.80;;
26335;SDS011;14047;50.936;4.654;2023-08-08T02:44:13;20.48;;;4.70;;
26335;SDS011;14047;50.936;4.654;2023-08-08T02:46:40;19.55;;;4.28;;
26335;SDS011;14047;50.936;4.654;2023-08-08T02:49:06;24.73;;;4.40;;
26335;SDS011;14047;50.936;4.654;2023-08-08T02:51:32;16.33;;;4.43;;
26335;SDS011;14047;50.936;4.654;2023-08-08T02:53:58;15.82;;;4.38;;
26335;SDS011;14047;50.936;4.654;2023-08-08T02:56:24;27.58;;;4.90;;
26335;SDS011;14047;50.936;4.654;2023-08-08T02:58:51;14.85;;;3.88;;
26335;SDS011;14047;50.936;4.654;2023-08-08T03:01:17;17.60;;;3.95;;
26335;SDS011;14047;50.936;4.654;2023-08-08T03:03:46;15.57;;;4.25;;
26335;SDS011;14047;50.936;4.654;2023-08-08T03:06:13;16.70;;;5.20;;
26335;SDS011;14047;50.936;4.654;2023-08-08T03:08:39;11.75;;;3.67;;
26335;SDS011;14047;50.936;4.654;2023-08-08T03:11:05;19.58;;;4.85;;
26335;SDS011;14047;50.936;4.654;2023-08-08T03:13:32;14.52;;;4.05;;
26335;SDS011;14047;50.936;4.654;2023-08-08T03:15:58;18.77;;;3.95;;
26335;SDS011;14047;50.936;4.654;2023-08-08T03:18:24;12.95;;;4.30;;
26335;SDS011;14047;50.936;4.654;2023-08-08T03:20:52;14.85;;;4.15;;
26335;SDS011;14047;50.936;4.654;2023-08-08T03:23:18;15.35;;;4.57;;
26335;SDS011;14047;50.936;4.654;2023-08-08T03:25:45;17.10;;;4.40;;
26335;SDS011;14047;50.936;4.654;2023-08-08T03:28:12;17.45;;;4.47;;
26335;SDS011;14047;50.936;4.654;2023-08-08T03:30:38;14.27;;;4.88;;
26335;SDS011;14047;50.936;4.654;2023-08-08T03:33:07;15.48;;;4.18;;
26335;SDS011;14047;50.936;4.654;2023-08-08T03:35:33;14.60;;;4.50;;
26335;SDS011;14047;50.936;4.654;2023-08-08T03:38:00;15.75;;;4.15;;
26335;SDS011;14047;50.936;4.654;2023-08-08T03:40:26;17.88;;;4.07;;
26335;SDS011;14047;50.936;4.654;2023-08-08T03:42:52;15.80;;;4.60;;
26335;SDS011;14047;50.936;4.654;2023-08-08T03:45:17;19.15;;;4.20;;
26335;SDS011;14047;50.936;4.654;2023-08-08T03:47:44;17.38;;;5.30;;
26335;SDS011;14047;50.936;4.654;2023-08-08T03:50:10;19.33;;;4.57;;
26335;SDS011;14047;50.936;4.654;2023-08-08T03:52:37;12.77;;;5.30;;
26335;SDS011;14047;50.936;4.654;2023-08-08T03:55:06;15.55;;;5.53;;
26335;SDS011;14047;50.936;4.654;2023-08-08T03:57:32;17.88;;;4.88;;
26335;SDS011;14047;50.936;4.654;2023-08-08T03:59:58;19.60;;;4.70;;
26335;SDS011;14047;50.936;4.654;2023-08-08T04:02:25;14.52;;;5.53;;
26335;SDS011;14047;50.936;4.654;2023-08-08T04:04:51;18.55;;;5.07;;
26335;SDS011;14047;50.936;4.654;2023-08-08T04:07:17;22.02;;;5.63;;
26335;SDS011;14047;50.936;4.654;2023-08-08T04:09:43;17.42;;;5.80;;
26335;SDS011;14047;50.936;4.654;2023-08-08T04:12:09;29.05;;;6.78;;
26335;SDS011;14047;50.936;4.654;2023-08-08T04:14:35;19.77;;;5.57;;
26335;SDS011;14047;50.936;4.654;2023-08-08T04:17:01;24.35;;;7.65;;
26335;SDS011;14047;50.936;4.654;2023-08-08T04:19:28;23.10;;;6.22;;
26335;SDS011;14047;50.936;4.654;2023-08-08T04:21:54;15.77;;;6.40;;
26335;SDS011;14047;50.936;4.654;2023-08-08T04:24:20;22.55;;;6.28;;
26335;SDS011;14047;50.936;4.654;2023-08-08T04:26:46;19.17;;;6.25;;
26335;SDS011;14047;50.936;4.654;2023-08-08T04:29:12;20.02;;;6.82;;
26335;SDS011;14047;50.936;4.654;2023-08-08T04:31:37;22.48;;;6.25;;
26335;SDS011;14047;50.936;4.654;2023-08-08T04:34:03;21.88;;;6.10;;
26335;SDS011;14047;50.936;4.654;2023-08-08T04:36:29;19.00;;;6.20;;
26335;SDS011;14047;50.936;4.654;2023-08-08T04:38:55;18.65;;;6.15;;
26335;SDS011;14047;50.936;4.654;2023-08-08T04:41:21;19.55;;;5.82;;
26335;SDS011;14047;50.936;4.654;2023-08-08T04:43:47;22.52;;;6.63;;
26335;SDS011;14047;50.936;4.654;2023-08-08T04:46:13;30.80;;;7.47;;
26335;SDS011;14047;50.936;4.654;2023-08-08T04:48:39;23.58;;;6.75;;
26335;SDS011;14047;50.936;4.654;2023-08-08T04:51:05;18.38;;;6.78;;
26335;SDS011;14047;50.936;4.654;2023-08-08T04:53:32;20.10;;;5.90;;
26335;SDS011;14047;50.936;4.654;2023-08-08T04:55:58;21.83;;;6.35;;
26335;SDS011;14047;50.936;4.654;2023-08-08T04:58:24;17.27;;;5.97;;
26335;SDS011;14047;50.936;4.654;2023-08-08T05:00:49;22.02;;;6.22;;
26335;SDS011;14047;50.936;4.654;2023-08-08T05:03:20;25.48;;;6.20;;
26335;SDS011;14047;50.936;4.654;2023-08-08T05:05:46;15.40;;;6.35;;
26335;SDS011;14047;50.936;4.654;2023-08-08T05:08:13;17.35;;;6.22;;
26335;SDS011;14047;50.936;4.654;2023-08-08T05:10:43;20.52;;;7.10;;
26335;SDS011;14047;50.936;4.654;2023-08-08T05:13:09;17.67;;;6.13;;
26335;SDS011;14047;50.936;4.654;2023-08-08T05:15:35;23.50;;;6.60;;
26335;SDS011;14047;50.936;4.654;2023-08-08T05:18:01;23.92;;;6.30;;
26335;SDS011;14047;50.936;4.654;2023-08-08T05:20:27;24.42;;;5.90;;
26335;SDS011;14047;50.936;4.654;2023-08-08T05:22:53;25.52;;;5.70;;
26335;SDS011;14047;50.936;4.654;2023-08-08T05:25:19;20.23;;;5.13;;
26335;SDS011;14047;50.936;4.654;2023-08-08T05:27:45;15.95;;;5.55;;
26335;SDS011;14047;50.936;4.654;2023-08-08T05:30:12;16.42;;;5.18;;
26335;SDS011;14047;50.936;4.654;2023-08-08T05:32:38;15.93;;;4.80;;
26335;SDS011;14047;50.936;4.654;2023-08-08T05:35:04;17.63;;;5.13;;
26335;SDS011;14047;50.936;4.654;2023-08-08T05:37:30;15.73;;;5.22;;
26335;SDS011;14047;50.936;4.654;2023-08-08T05:39:56;17.38;;;6.20;;
26335;SDS011;14047;50.936;4.654;2023-08-08T05:42:22;15.05;;;4.35;;
26335;SDS011;14047;50.936;4.654;2023-08-08T05:44:48;13.07;;;4.45;;
26335;SDS011;14047;50.936;4.654;2023-08-08T05:47:14;15.15;;;4.40;;
26335;SDS011;14047;50.936;4.654;2023-08-08T05:49:40;16.55;;;3.80;;
26335;SDS011;14047;50.936;4.654;2023-08-08T05:52:07;17.17;;;3.60;;
26335;SDS011;14047;50.936;4.654;2023-08-08T05:54:34;12.75;;;3.85;;
26335;SDS011;14047;50.936;4.654;2023-08-08T05:57:00;26.25;;;4.88;;
26335;SDS011;14047;50.936;4.654;2023-08-08T05:59:27;20.38;;;3.88;;
26335;SDS011;14047;50.936;4.654;2023-08-08T06:01:53;13.60;;;3.63;;
26335;SDS011;14047;50.936;4.654;2023-08-08T06:04:19;15.52;;;3.50;;
26335;SDS011;14047;50.936;4.654;2023-08-08T06:06:45;14.18;;;4.53;;
26335;SDS011;14047;50.936;4.654;2023-08-08T06:09:14;14.43;;;4.15;;
26335;SDS011;14047;50.936;4.654;2023-08-08T06:11:40;18.75;;;3.92;;
26335;SDS011;14047;50.936;4.654;2023-08-08T06:14:06;15.48;;;3.67;;
26335;SDS011;14047;50.936;4.654;2023-08-08T06:16:32;10.50;;;3.70;;
26335;SDS011;14047;50.936;4.654;2023-08-08T06:18:58;15.15;;;4.05;;
26335;SDS011;14047;50.936;4.654;2023-08-08T06:21:24;19.48;;;4.38;;
26335;SDS011;14047;50.936;4.654;2023-08-08T06:23:50;19.85;;;4.13;;
26335;SDS011;14047;50.936;4.654;2023-08-08T06:26:20;18.20;;;3.55;;
26335;SDS011;14047;50.936;4.654;2023-08-08T06:28:46;15.02;;;3.28;;
26335;SDS011;14047;50.936;4.654;2023-08-08T06:31:13;10.13;;;3.55;;
26335;SDS011;14047;50.936;4.654;2023-08-08T06:33:39;14.43;;;3.87;;
26335;SDS011;14047;50.936;4.654;2023-08-08T06:36:05;19.48;;;4.68;;
26335;SDS011;14047;50.936;4.654;2023-08-08T06:38:31;12.52;;;3.50;;
26335;SDS011;14047;50.936;4.654;2023-08-08T06:40:59;25.20;;;3.88;;
26335;SDS011;14047;50.936;4.654;2023-08-08T06:43:26;20.23;;;3.90;;
26335;SDS011;14047;50.936;4.654;2023-08-08T06:45:52;13.88;;;3.75;;
26335;SDS011;14047;50.936;4.654;2023-08-08T06:48:17;17.33;;;3.88;;
26335;SDS011;14047;50.936;4.654;2023-08-08T06:50:43;9.82;;;3.00;;
26335;SDS011;14047;50.936;4.654;2023-08-08T06:53:09;19.42;;;3.67;;
26335;SDS011;14047;50.936;4.654;2023-08-08T06:55:35;18.00;;;2.88;;
26335;SDS011;14047;50.936;4.654;2023-08-08T06:58:01;15.10;;;3.72;;
26335;SDS011;14047;50.936;4.654;2023-08-08T07:00:28;15.82;;;3.58;;
26335;SDS011;14047;50.936;4.654;2023-08-08T07:02:54;12.45;;;3.67;;
26335;SDS011;14047;50.936;4.654;2023-08-08T07:05:20;16.98;;;4.07;;
26335;SDS011;14047;50.936;4.654;2023-08-08T07:07:50;16.17;;;3.53;;
26335;SDS011;14047;50.936;4.654;2023-08-08T07:10:16;16.70;;;2.67;;
26335;SDS011;14047;50.936;4.654;2023-08-08T07:12:42;12.88;;;3.40;;
26335;SDS011;14047;50.936;4.654;2023-08-08T07:15:08;21.63;;;3.58;;
26335;SDS011;14047;50.936;4.654;2023-08-08T07:17:35;14.13;;;2.90;;
26335;SDS011;14047;50.936;4.654;2023-08-08T07:20:01;9.55;;;3.08;;
26335;SDS011;14047;50.936;4.654;2023-08-08T07:22:27;20.98;;;3.53;;
26335;SDS011;14047;50.936;4.654;2023-08-08T07:24:53;12.25;;;3.55;;
26335;SDS011;14047;50.936;4.654;2023-08-08T07:27:19;13.73;;;3.20;;
26335;SDS011;14047;50.936;4.654;2023-08-08T07:29:45;14.13;;;3.42;;
26335;SDS011;14047;50.936;4.654;2023-08-08T07:32:11;12.93;;;2.83;;
26335;SDS011;14047;50.936;4.654;2023-08-08T07:34:37;10.40;;;2.80;;
26335;SDS011;14047;50.936;4.654;2023-08-08T07:37:03;11.90;;;3.25;;
26335;SDS011;14047;50.936;4.654;2023-08-08T07:39:29;16.60;;;3.65;;
26335;SDS011;14047;50.936;4.654;2023-08-08T07:41:55;10.88;;;2.47;;
26335;SDS011;14047;50.936;4.654;2023-08-08T07:44:22;9.70;;;2.65;;
26335;SDS011;14047;50.936;4.654;2023-08-08T07:46:48;7.15;;;2.72;;
26335;SDS011;14047;50.936;4.654;2023-08-08T07:49:14;10.85;;;3.15;;
26335;SDS011;14047;50.936;4.654;2023-08-08T07:51:40;11.77;;;2.53;;
26335;SDS011;14047;50.936;4.654;2023-08-08T07:54:06;11.60;;;2.95;;
26335;SDS011;14047;50.936;4.654;2023-08-08T07:56:34;12.98;;;2.90;;
26335;SDS011;14047;50.936;4.654;2023-08-08T07:59:00;12.95;;;2.50;;
26335;SDS011;14047;50.936;4.654;2023-08-08T08:01:27;12.20;;;2.70;;
26335;SDS011;14047;50.936;4.654;2023-08-08T08:03:53;12.25;;;3.00;;
26335;SDS011;14047;50.936;4.654;2023-08-08T08:06:19;9.13;;;2.80;;
26335;SDS011;14047;50.936;4.654;2023-08-08T08:08:45;8.15;;;2.50;;
26335;SDS011;14047;50.936;4.654;2023-08-08T08:11:11;17.42;;;3.30;;
26335;SDS011;14047;50.936;4.654;2023-08-08T08:13:38;15.30;;;3.00;;
26335;SDS011;14047;50.936;4.654;2023-08-08T08:16:04;12.20;;;3.25;;
26335;SDS011;14047;50.936;4.654;2023-08-08T08:18:31;9.32;;;2.90;;
26335;SDS011;14047;50.936;4.654;2023-08-08T08:20:58;10.70;;;2.95;;
26335;SDS011;14047;50.936;4.654;2023-08-08T08:23:25;9.27;;;2.72;;
26335;SDS011;14047;50.936;4.654;2023-08-08T08:25:51;13.30;;;3.40;;
26335;SDS011;14047;50.936;4.654;2023-08-08T08:28:17;12.90;;;3.28;;
26335;SDS011;14047;50.936;4.654;2023-08-08T08:30:43;8.88;;;3.20;;
26335;SDS011;14047;50.936;4.654;2023-08-08T08:33:09;14.82;;;3.20;;
26335;SDS011;14047;50.936;4.654;2023-08-08T08:35:35;13.98;;;3.47;;
26335;SDS011;14047;50.936;4.654;2023-08-08T08:38:02;9.43;;;3.20;;
26335;SDS011;14047;50.936;4.654;2023-08-08T08:40:28;11.32;;;3.20;;
26335;SDS011;14047;50.936;4.654;2023-08-08T08:42:59;12.30;;;3.47;;
26335;SDS011;14047;50.936;4.654;2023-08-08T08:45:26;10.30;;;2.95;;
26335;SDS011;14047;50.936;4.654;2023-08-08T08:47:55;9.77;;;2.80;;
26335;SDS011;14047;50.936;4.654;2023-08-08T08:50:22;11.65;;;3.08;;
26335;SDS011;14047;50.936;4.654;2023-08-08T08:52:51;14.10;;;3.50;;
26335;SDS011;14047;50.936;4.654;2023-08-08T08:55:21;12.63;;;3.58;;
26335;SDS011;14047;50.936;4.654;2023-08-08T08:57:48;11.45;;;3.45;;
26335;SDS011;14047;50.936;4.654;2023-08-08T09:00:15;15.23;;;3.88;;
26335;SDS011;14047;50.936;4.654;2023-08-08T09:02:42;12.43;;;3.65;;
26335;SDS011;14047;50.936;4.654;2023-08-08T09:05:08;18.05;;;3.72;;
26335;SDS011;14047;50.936;4.654;2023-08-08T09:07:37;9.50;;;3.20;;
26335;SDS011;14047;50.936;4.654;2023-08-08T09:10:03;11.20;;;3.17;;
26335;SDS011;14047;50.936;4.654;2023-08-08T09:12:30;13.43;;;3.30;;
26335;SDS011;14047;50.936;4.654;2023-08-08T09:14:57;11.52;;;4.10;;
26335;SDS011;14047;50.936;4.654;2023-08-08T09:17:27;9.65;;;3.00;;
26335;SDS011;14047;50.936;4.654;2023-08-08T09:19:56;11.68;;;2.83;;
26335;SDS011;14047;50.936;4.654;2023-08-08T09:22:24;10.18;;;2.90;;
26335;SDS011;14047;50.936;4.654;2023-08-08T09:24:52;11.45;;;3.03;;
26335;SDS011;14047;50.936;4.654;2023-08-08T09:27:18;11.38;;;3.05;;
26335;SDS011;14047;50.936;4.654;2023-08-08T09:29:43;10.60;;;2.88;;
26335;SDS011;14047;50.936;4.654;2023-08-08T09:32:09;8.77;;;2.55;;
26335;SDS011;14047;50.936;4.654;2023-08-08T09:34:40;10.35;;;2.30;;
26335;SDS011;14047;50.936;4.654;2023-08-08T09:37:08;14.00;;;2.30;;
26335;SDS011;14047;50.936;4.654;2023-08-08T09:39:35;11.10;;;2.60;;
26335;SDS011;14047;50.936;4.654;2023-08-08T09:42:02;8.77;;;2.45;;
26335;SDS011;14047;50.936;4.654;2023-08-08T09:44:29;13.05;;;2.53;;
26335;SDS011;14047;50.936;4.654;2023-08-08T09:46:57;7.00;;;2.30;;
26335;SDS011;14047;50.936;4.654;2023-08-08T09:49:23;9.00;;;2.38;;
26335;SDS011;14047;50.936;4.654;2023-08-08T09:51:49;12.30;;;2.30;;
26335;SDS011;14047;50.936;4.654;2023-08-08T09:54:15;11.70;;;2.75;;
26335;SDS011;14047;50.936;4.654;2023-08-08T09:56:42;14.88;;;2.85;;
26335;SDS011;14047;50.936;4.654;2023-08-08T09:59:08;9.73;;;2.30;;
26335;SDS011;14047;50.936;4.654;2023-08-08T10:01:36;11.30;;;2.67;;
26335;SDS011;14047;50.936;4.654;2023-08-08T10:04:04;5.70;;;2.60;;
26335;SDS011;14047;50.936;4.654;2023-08-08T10:06:32;8.60;;;2.67;;
26335;SDS011;14047;50.936;4.654;2023-08-08T10:08:58;9.02;;;2.20;;
26335;SDS011;14047;50.936;4.654;2023-08-08T10:11:25;9.68;;;2.20;;
26335;SDS011;14047;50.936;4.654;2023-08-08T10:13:53;7.68;;;2.38;;
26335;SDS011;14047;50.936;4.654;2023-08-08T10:16:19;9.25;;;2.10;;
26335;SDS011;14047;50.936;4.654;2023-08-08T10:19:00;8.88;;;2.00;;
26335;SDS011;14047;50.936;4.654;2023-08-08T10:21:27;9.77;;;2.20;;
26335;SDS011;14047;50.936;4.654;2023-08-08T10:24:19;6.32;;;1.85;;
26335;SDS011;14047;50.936;4.654;2023-08-08T10:26:59;12.30;;;2.10;;
26335;SDS011;14047;50.936;4.654;2023-08-08T10:29:27;9.35;;;2.00;;
26335;SDS011;14047;50.936;4.654;2023-08-08T10:32:02;9.02;;;1.75;;
26335;SDS011;14047;50.936;4.654;2023-08-08T10:34:37;6.45;;;2.08;;
26335;SDS011;14047;50.936;4.654;2023-08-08T10:37:05;6.32;;;1.83;;
26335;SDS011;14047;50.936;4.654;2023-08-08T10:39:34;8.52;;;1.90;;
26335;SDS011;14047;50.936;4.654;2023-08-08T10:42:01;10.05;;;1.83;;
26335;SDS011;14047;50.936;4.654;2023-08-08T10:44:29;4.55;;;1.60;;
26335;SDS011;14047;50.936;4.654;2023-08-08T10:46:56;3.83;;;1.48;;
26335;SDS011;14047;50.936;4.654;2023-08-08T10:49:22;6.00;;;1.70;;
26335;SDS011;14047;50.936;4.654;2023-08-08T10:51:48;7.88;;;1.95;;
26335;SDS011;14047;50.936;4.654;2023-08-08T10:54:16;6.90;;;1.70;;
26335;SDS011;14047;50.936;4.654;2023-08-08T10:56:51;4.07;;;1.55;;
26335;SDS011;14047;50.936;4.654;2023-08-08T10:59:19;8.85;;;2.13;;
26335;SDS011;14047;50.936;4.654;2023-08-08T11:01:52;4.13;;;1.60;;
26335;SDS011;14047;50.936;4.654;2023-08-08T11:04:18;10.18;;;2.38;;
26335;SDS011;14047;50.936;4.654;2023-08-08T11:06:47;5.25;;;1.83;;
26335;SDS011;14047;50.936;4.654;2023-08-08T11:09:14;6.25;;;1.95;;
26335;SDS011;14047;50.936;4.654;2023-08-08T11:11:41;4.72;;;1.58;;
26335;SDS011;14047;50.936;4.654;2023-08-08T11:14:09;5.47;;;1.73;;
26335;SDS011;14047;50.936;4.654;2023-08-08T11:16:39;6.65;;;2.45;;
26335;SDS011;14047;50.936;4.654;2023-08-08T11:19:06;9.85;;;1.73;;
26335;SDS011;14047;50.936;4.654;2023-08-08T11:21:44;6.50;;;2.03;;
26335;SDS011;14047;50.936;4.654;2023-08-08T11:24:12;4.28;;;1.58;;
26335;SDS011;14047;50.936;4.654;2023-08-08T11:26:39;4.13;;;1.70;;
26335;SDS011;14047;50.936;4.654;2023-08-08T11:29:06;7.22;;;2.05;;
26335;SDS011;14047;50.936;4.654;2023-08-08T11:31:36;5.35;;;1.70;;
26335;SDS011;14047;50.936;4.654;2023-08-08T11:34:03;4.90;;;1.60;;
26335;SDS011;14047;50.936;4.654;2023-08-08T11:36:31;4.07;;;1.40;;
26335;SDS011;14047;50.936;4.654;2023-08-08T11:39:01;4.07;;;1.77;;
26335;SDS011;14047;50.936;4.654;2023-08-08T11:41:33;4.95;;;1.40;;
26335;SDS011;14047;50.936;4.654;2023-08-08T11:44:02;2.40;;;1.17;;
26335;SDS011;14047;50.936;4.654;2023-08-08T11:46:29;2.03;;;1.05;;
26335;SDS011;14047;50.936;4.654;2023-08-08T11:49:01;3.97;;;1.38;;
26335;SDS011;14047;50.936;4.654;2023-08-08T11:51:29;3.90;;;1.50;;
26335;SDS011;14047;50.936;4.654;2023-08-08T11:53:55;4.50;;;1.40;;
26335;SDS011;14047;50.936;4.654;2023-08-08T11:56:21;5.45;;;1.52;;
26335;SDS011;14047;50.936;4.654;2023-08-08T11:58:50;2.80;;;1.42;;
26335;SDS011;14047;50.936;4.654;2023-08-08T12:01:26;2.95;;;1.38;;
26335;SDS011;14047;50.936;4.654;2023-08-08T12:03:52;3.45;;;1.40;;
26335;SDS011;14047;50.936;4.654;2023-08-08T12:06:19;4.05;;;1.23;;
26335;SDS011;14047;50.936;4.654;2023-08-08T12:08:46;4.22;;;1.67;;
26335;SDS011;14047;50.936;4.654;2023-08-08T12:11:13;5.88;;;1.45;;
26335;SDS011;14047;50.936;4.654;2023-08-08T12:13:40;7.05;;;1.50;;
26335;SDS011;14047;50.936;4.654;2023-08-08T12:16:08;4.80;;;1.45;;
26335;SDS011;14047;50.936;4.654;2023-08-08T12:18:36;6.32;;;1.58;;
26335;SDS011;14047;50.936;4.654;2023-08-08T12:21:07;4.35;;;1.40;;
26335;SDS011;14047;50.936;4.654;2023-08-08T12:23:34;2.40;;;1.20;;
26335;SDS011;14047;50.936;4.654;2023-08-08T12:26:02;4.57;;;1.25;;
26335;SDS011;14047;50.936;4.654;2023-08-08T12:28:30;5.47;;;1.50;;
26335;SDS011;14047;50.936;4.654;2023-08-08T12:30:56;5.20;;;1.60;;
26335;SDS011;14047;50.936;4.654;2023-08-08T12:33:22;3.42;;;1.17;;
26335;SDS011;14047;50.936;4.654;2023-08-08T12:35:51;3.78;;;1.02;;
26335;SDS011;14047;50.936;4.654;2023-08-08T12:38:17;3.25;;;1.45;;
26335;SDS011;14047;50.936;4.654;2023-08-08T12:40:44;4.28;;;1.40;;
26335;SDS011;14047;50.936;4.654;2023-08-08T12:43:10;1.48;;;0.90;;
26335;SDS011;14047;50.936;4.654;2023-08-08T12:45:45;3.78;;;1.40;;
26335;SDS011;14047;50.936;4.654;2023-08-08T12:48:13;4.75;;;1.42;;
26335;SDS011;14047;50.936;4.654;2023-08-08T12:50:39;2.47;;;1.17;;
26335;SDS011;14047;50.936;4.654;2023-08-08T12:53:05;5.55;;;1.48;;
26335;SDS011;14047;50.936;4.654;2023-08-08T12:55:33;4.03;;;1.20;;
26335;SDS011;14047;50.936;4.654;2023-08-08T12:57:59;2.90;;;1.20;;
26335;SDS011;14047;50.936;4.654;2023-08-08T13:00:25;4.30;;;1.50;;
26335;SDS011;14047;50.936;4.654;2023-08-08T13:02:51;2.33;;;1.10;;
26335;SDS011;14047;50.936;4.654;2023-08-08T13:05:17;4.90;;;1.33;;
26335;SDS011;14047;50.936;4.654;2023-08-08T13:07:43;1.70;;;1.10;;
26335;SDS011;14047;50.936;4.654;2023-08-08T13:10:09;2.38;;;1.20;;
26335;SDS011;14047;50.936;4.654;2023-08-08T13:12:38;4.05;;;1.20;;
26335;SDS011;14047;50.936;4.654;2023-08-08T13:15:04;5.47;;;1.25;;
26335;SDS011;14047;50.936;4.654;2023-08-08T13:17:31;3.67;;;1.00;;
26335;SDS011;14047;50.936;4.654;2023-08-08T13:19:57;2.95;;;1.15;;
26335;SDS011;14047;50.936;4.654;2023-08-08T13:22:23;4.65;;;1.17;;
26335;SDS011;14047;50.936;4.654;2023-08-08T13:24:49;2.08;;;0.93;;
26335;SDS011;14047;50.936;4.654;2023-08-08T13:27:15;4.18;;;1.25;;
26335;SDS011;14047;50.936;4.654;2023-08-08T13:29:41;2.25;;;0.70;;
26335;SDS011;14047;50.936;4.654;2023-08-08T13:32:07;2.22;;;1.23;;
26335;SDS011;14047;50.936;4.654;2023-08-08T13:34:36;2.10;;;0.90;;
26335;SDS011;14047;50.936;4.654;2023-08-08T13:37:02;3.38;;;1.20;;
26335;SDS011;14047;50.936;4.654;2023-08-08T13:39:30;4.15;;;1.20;;
26335;SDS011;14047;50.936;4.654;2023-08-08T13:41:58;5.05;;;0.93;;
26335;SDS011;14047;50.936;4.654;2023-08-08T13:44:24;3.88;;;1.00;;
26335;SDS011;14047;50.936;4.654;2023-08-08T13:46:50;4.28;;;0.95;;
26335;SDS011;14047;50.936;4.654;2023-08-08T13:49:17;2.25;;;0.75;;
26335;SDS011;14047;50.936;4.654;2023-08-08T13:51:42;3.03;;;0.93;;
26335;SDS011;14047;50.936;4.654;2023-08-08T13:54:09;3.88;;;1.02;;
26335;SDS011;14047;50.936;4.654;2023-08-08T13:56:35;3.97;;;1.00;;
26335;SDS011;14047;50.936;4.654;2023-08-08T13:59:01;2.40;;;0.88;;
26335;SDS011;14047;50.936;4.654;2023-08-08T14:01:27;2.05;;;1.10;;
26335;SDS011;14047;50.936;4.654;2023-08-08T14:03:53;4.18;;;1.15;;
26335;SDS011;14047;50.936;4.654;2023-08-08T14:06:19;5.38;;;1.38;;
26335;SDS011;14047;50.936;4.654;2023-08-08T14:08:45;4.05;;;1.20;;
26335;SDS011;14047;50.936;4.654;2023-08-08T14:11:11;3.08;;;1.10;;
26335;SDS011;14047;50.936;4.654;2023-08-08T14:13:36;5.72;;;1.27;;
26335;SDS011;14047;50.936;4.654;2023-08-08T14:16:03;5.38;;;1.30;;
26335;SDS011;14047;50.936;4.654;2023-08-08T14:18:29;3.70;;;1.30;;
26335;SDS011;14047;50.936;4.654;2023-08-08T14:20:55;5.32;;;1.27;;
26335;SDS011;14047;50.936;4.654;2023-08-08T14:23:21;4.00;;;1.58;;
26335;SDS011;14047;50.936;4.654;2023-08-08T14:25:47;3.63;;;1.08;;
26335;SDS011;14047;50.936;4.654;2023-08-08T14:28:13;5.63;;;1.20;;
26335;SDS011;14047;50.936;4.654;2023-08-08T14:30:40;7.05;;;1.38;;
26335;SDS011;14047;50.936;4.654;2023-08-08T14:33:06;2.90;;;1.30;;
26335;SDS011;14047;50.936;4.654;2023-08-08T14:35:32;6.43;;;1.10;;
26335;SDS011;14047;50.936;4.654;2023-08-08T14:37:58;2.92;;;1.20;;
26335;SDS011;14047;50.936;4.654;2023-08-08T14:40:23;5.60;;;1.10;;
26335;SDS011;14047;50.936;4.654;2023-08-08T14:42:49;4.70;;;1.02;;